Alpine, Texas
Current Conditions -  °F | °C
As of 5:55 AM on Saturday 25 Oct 2014 (Local Time) from KE38 Reporting Station
Clear Clear  
Wind Chill: 58°   Ceiling: Unl
Heat Index: 58°   Visibility: 10mi
Dew Point: 51°   Wind: 8mph
Humidity: 77%   Direction: 220°SW
Pressure: 30.3"   Gusts: NA
Location:  30.36°N, 103.66°W
Report Text: KE38 251055Z AUTO 22007KT 10SM CLR 15/11 A3030 RMK AO2 T01460107
Loading
Personal Weather Stations






























Interactive Weather Map
Tropical Storm Tracking
New forecast layout! Learn more

10-Day Weather Forecast

Advertisements
Track Severe Weather on mobile